createdAt,value
2023-03-29T00:00:14.648Z,751.4615
2023-03-29T00:01:35.051Z,748.6923
2023-03-29T00:02:17.918Z,749.6667
2023-03-29T00:03:19.729Z,748.0000
2023-03-29T00:04:21.226Z,751.7692
2023-03-29T00:05:22.853Z,754.1539
2023-03-29T00:06:24.532Z,757.3077
2023-03-29T00:07:26.183Z,756.6154
2023-03-29T00:08:27.836Z,755.6154
2023-03-29T00:09:29.484Z,755.0000
2023-03-29T00:10:31.120Z,755.7692
2023-03-29T00:11:32.800Z,754.7692
2023-03-29T00:12:34.428Z,755.4615
2023-03-29T00:13:36.128Z,754.2308
2023-03-29T00:14:37.734Z,751.4615
2023-03-29T00:15:39.405Z,751.0769
2023-03-29T00:16:41.071Z,754.1539
2023-03-29T00:17:42.767Z,755.6923
2023-03-29T00:18:44.385Z,755.0000
2023-03-29T00:19:46.023Z,754.3846
2023-03-29T00:20:47.666Z,751.3077
2023-03-29T00:21:49.322Z,752.7692
2023-03-29T00:22:50.967Z,754.5385
2023-03-29T00:23:52.670Z,754.9231
2023-03-29T00:24:54.319Z,753.6154
2023-03-29T00:25:55.957Z,755.2308
2023-03-29T00:26:57.610Z,755.4615
2023-03-29T00:27:59.268Z,755.7692
2023-03-29T00:29:00.943Z,759.8461
2023-03-29T00:30:02.570Z,759.4615
2023-03-29T00:31:04.430Z,761.0769
2023-03-29T00:32:05.877Z,758.2308
2023-03-29T00:33:07.554Z,755.3846
2023-03-29T00:34:09.199Z,755.9231
2023-03-29T00:35:10.825Z,756.0000
2023-03-29T00:36:12.497Z,757.4615
2023-03-29T00:37:14.112Z,758.0769
2023-03-29T00:38:15.798Z,756.6154
2023-03-29T00:39:17.449Z,756.5385
2023-03-29T00:40:19.099Z,754.0769
2023-03-29T00:41:20.734Z,755.4615
2023-03-29T00:42:22.407Z,754.3846
2023-03-29T00:43:24.041Z,753.2308
2023-03-29T00:44:25.744Z,753.7692
2023-03-29T00:45:27.354Z,752.9231
2023-03-29T00:46:29.108Z,751.9231
2023-03-29T00:47:30.671Z,750.8461
2023-03-29T00:48:32.383Z,752.5385
2023-03-29T00:49:33.994Z,753.5385
2023-03-29T00:50:35.647Z,752.7692
2023-03-29T00:51:37.291Z,752.5385
2023-03-29T00:52:38.950Z,753.1539
2023-03-29T00:53:40.580Z,753.2308
2023-03-29T00:54:42.294Z,752.0769
2023-03-29T00:55:43.895Z,752.3077
2023-03-29T00:56:45.578Z,753.9231
2023-03-29T00:57:47.200Z,756.0769
2023-03-29T00:58:48.871Z,755.6154
2023-03-29T00:59:50.579Z,755.5385
2023-03-29T01:00:52.206Z,757.0769
2023-03-29T01:01:53.871Z,756.0000
2023-03-29T01:02:55.538Z,754.6923
2023-03-29T01:03:57.154Z,756.4615
2023-03-29T01:04:58.817Z,756.9231
2023-03-29T01:06:00.462Z,757.3846
2023-03-29T01:07:02.159Z,757.6154
2023-03-29T01:08:03.757Z,756.4615
2023-03-29T01:09:05.419Z,756.3846
2023-03-29T01:10:07.085Z,756.0769
2023-03-29T01:11:08.735Z,757.4615
2023-03-29T01:12:10.388Z,757.0000
2023-03-29T01:13:12.043Z,757.9231
2023-03-29T01:14:13.684Z,758.3846
2023-03-29T01:15:15.398Z,758.5385
2023-03-29T01:16:17.094Z,758.6154
2023-03-29T01:17:18.683Z,758.3846
2023-03-29T01:18:20.307Z,760.1539
2023-03-29T01:19:21.977Z,760.9231
2023-03-29T01:20:23.635Z,761.3846
2023-03-29T01:21:25.285Z,761.9231
2023-03-29T01:22:26.931Z,763.1539
2023-03-29T01:23:28.599Z,762.0769
2023-03-29T01:24:30.225Z,761.8461
2023-03-29T01:25:31.918Z,759.5385
2023-03-29T01:26:33.540Z,756.6923
2023-03-29T01:27:35.208Z,757.4615
2023-03-29T01:28:36.847Z,754.2308
2023-03-29T01:29:38.507Z,750.7692
2023-03-29T01:30:40.173Z,749.1539
2023-03-29T01:31:41.902Z,750.3077
2023-03-29T01:32:43.450Z,751.6154
2023-03-29T01:33:45.142Z,752.3077
2023-03-29T01:34:46.802Z,751.9231
2023-03-29T01:35:48.521Z,750.6923
2023-03-29T01:36:50.073Z,750.1539
2023-03-29T01:37:51.760Z,751.9231
2023-03-29T01:38:53.401Z,751.6154
2023-03-29T01:39:55.061Z,749.2308
2023-03-29T01:40:56.722Z,748.0769
2023-03-29T01:41:58.367Z,746.0000
2023-03-29T01:43:00.024Z,748.6154
2023-03-29T01:44:01.692Z,750.1539
2023-03-29T01:45:03.325Z,754.1539
2023-03-29T01:46:05.454Z,754.5385
2023-03-29T01:47:06.630Z,751.5385
2023-03-29T01:48:08.303Z,751.1539
2023-03-29T01:49:09.950Z,750.0000
2023-03-29T01:50:11.620Z,747.3846
2023-03-29T01:51:13.316Z,747.3077
2023-03-29T01:52:14.941Z,746.6923
2023-03-29T01:53:16.572Z,746.6154
2023-03-29T01:54:18.245Z,747.6923
2023-03-29T01:55:19.879Z,753.4615
2023-03-29T01:56:21.571Z,757.0000
2023-03-29T01:57:23.276Z,760.0000
2023-03-29T01:58:24.861Z,760.7692
2023-03-29T01:59:26.500Z,759.7692
2023-03-29T02:00:28.152Z,756.7692
2023-03-29T02:01:29.841Z,755.7692
2023-03-29T02:02:31.560Z,755.2308
2023-03-29T02:03:33.199Z,754.9231
2023-03-29T02:04:34.796Z,754.5385
2023-03-29T02:05:36.409Z,752.3846
2023-03-29T02:06:38.100Z,750.9231
2023-03-29T02:07:39.713Z,750.6923
2023-03-29T02:08:41.386Z,753.0769
2023-03-29T02:09:43.022Z,753.0000
2023-03-29T02:10:44.692Z,751.2308
2023-03-29T02:11:46.353Z,751.6923
2023-03-29T02:12:48.001Z,752.1539
2023-03-29T02:13:49.641Z,752.6923
2023-03-29T02:14:51.304Z,754.4615
2023-03-29T02:15:53.117Z,755.4615
2023-03-29T02:16:54.633Z,755.4615
2023-03-29T02:17:56.262Z,755.6154
2023-03-29T02:18:57.933Z,752.5385
2023-03-29T02:19:59.549Z,752.7692
2023-03-29T02:21:01.441Z,753.1539
2023-03-29T02:22:02.892Z,751.6154
2023-03-29T02:23:04.537Z,749.6923
2023-03-29T02:24:06.156Z,749.0769
2023-03-29T02:25:07.841Z,749.9231
2023-03-29T02:26:09.460Z,750.1539
2023-03-29T02:27:11.178Z,754.2308
2023-03-29T02:28:12.781Z,756.0000
2023-03-29T02:29:14.446Z,755.2308
2023-03-29T02:30:16.083Z,756.0000
2023-03-29T02:31:17.788Z,756.6154
2023-03-29T02:32:19.405Z,757.6923
2023-03-29T02:33:21.048Z,758.4615
2023-03-29T02:34:22.756Z,759.9231
2023-03-29T02:35:24.359Z,758.9231
2023-03-29T02:36:25.987Z,760.4615
2023-03-29T02:37:27.686Z,764.5385
2023-03-29T02:38:29.303Z,766.2308
2023-03-29T02:39:30.972Z,765.0769
2023-03-29T02:40:32.609Z,763.8461
2023-03-29T02:41:34.262Z,762.9231
2023-03-29T02:42:35.949Z,761.5385
2023-03-29T02:43:37.572Z,759.3077
2023-03-29T02:44:39.278Z,757.6923
2023-03-29T02:45:40.936Z,758.1539
2023-03-29T02:46:42.691Z,758.3077
2023-03-29T02:47:44.364Z,757.4615
2023-03-29T02:48:45.887Z,756.8461
2023-03-29T02:49:50.343Z,754.7692
2023-03-29T02:50:49.215Z,754.9231
2023-03-29T02:51:50.844Z,753.4615
2023-03-29T02:52:52.562Z,755.2308
2023-03-29T02:53:54.148Z,757.5385
2023-03-29T02:54:55.829Z,757.2308
2023-03-29T02:55:57.449Z,757.7692
2023-03-29T02:56:59.160Z,760.7692
2023-03-29T02:58:00.780Z,761.3077
2023-03-29T02:59:02.433Z,762.6923
2023-03-29T03:00:04.075Z,764.7692
2023-03-29T03:01:05.730Z,766.0000
2023-03-29T03:02:07.435Z,762.6154
2023-03-29T03:03:09.214Z,761.3077
2023-03-29T03:04:10.749Z,760.7692
2023-03-29T03:05:12.352Z,762.2308
2023-03-29T03:06:14.931Z,762.2308
2023-03-29T03:07:15.663Z,763.0769
2023-03-29T03:08:17.304Z,763.0000
2023-03-29T03:09:18.949Z,762.3077
2023-03-29T03:10:20.601Z,763.0000
2023-03-29T03:11:22.260Z,763.2308
2023-03-29T03:12:23.902Z,761.0769
2023-03-29T03:13:25.590Z,758.3077
2023-03-29T03:14:27.209Z,759.0000
2023-03-29T03:15:28.875Z,760.1539
2023-03-29T03:16:30.588Z,758.7692
2023-03-29T03:17:32.195Z,756.0000
2023-03-29T03:18:33.998Z,758.0000
2023-03-29T03:19:35.485Z,760.8461
2023-03-29T03:20:37.095Z,762.5385
2023-03-29T03:21:38.786Z,765.0000
2023-03-29T03:22:40.420Z,768.1539
2023-03-29T03:23:42.123Z,770.6923
2023-03-29T03:24:43.704Z,772.1539
2023-03-29T03:25:45.366Z,770.3077
2023-03-29T03:26:47.016Z,768.0000
2023-03-29T03:27:48.691Z,770.4615
2023-03-29T03:28:50.351Z,769.9231
2023-03-29T03:29:51.982Z,771.8461
2023-03-29T03:30:53.640Z,771.6154
2023-03-29T03:31:55.310Z,770.6923
2023-03-29T03:32:56.953Z,773.0000
2023-03-29T03:33:58.594Z,774.9231
2023-03-29T03:35:00.216Z,773.6154
2023-03-29T03:36:01.983Z,773.4615
2023-03-29T03:37:03.522Z,772.4615
2023-03-29T03:38:05.195Z,772.5385
2023-03-29T03:39:06.841Z,772.1539
2023-03-29T03:40:08.495Z,773.8461
2023-03-29T03:41:10.133Z,774.3077
2023-03-29T03:42:11.804Z,773.0000
2023-03-29T03:43:13.434Z,773.9231
2023-03-29T03:44:15.134Z,772.9231
2023-03-29T03:45:16.745Z,774.0000
2023-03-29T03:46:18.500Z,774.0769
2023-03-29T03:47:20.046Z,771.6154
2023-03-29T03:48:21.726Z,770.9231
2023-03-29T03:49:23.408Z,770.0769
2023-03-29T03:50:25.024Z,769.3846
2023-03-29T03:51:26.666Z,770.6923
2023-03-29T03:52:28.336Z,769.8461
2023-03-29T03:53:29.973Z,770.3077
2023-03-29T03:54:31.664Z,770.0000
2023-03-29T03:55:33.309Z,773.0000
2023-03-29T03:56:34.964Z,774.4615
2023-03-29T03:57:36.584Z,773.2308
2023-03-29T03:58:38.254Z,773.3077
2023-03-29T03:59:39.919Z,774.5385
2023-03-29T04:00:41.563Z,775.8461
2023-03-29T04:01:43.208Z,775.9231
2023-03-29T04:02:44.904Z,774.2308
2023-03-29T04:03:46.543Z,773.5385
2023-03-29T04:04:48.188Z,772.6923
2023-03-29T04:05:49.812Z,773.4615
2023-03-29T04:06:51.497Z,775.2308
2023-03-29T04:07:53.121Z,774.9231
2023-03-29T04:08:54.792Z,772.0769
2023-03-29T04:09:56.462Z,770.8461
2023-03-29T04:10:58.107Z,770.8461
2023-03-29T04:11:59.745Z,769.7692
2023-03-29T04:13:01.462Z,768.3846
2023-03-29T04:14:03.056Z,766.7692
2023-03-29T04:15:04.748Z,765.9231
2023-03-29T04:16:06.392Z,765.3077
2023-03-29T04:17:08.052Z,764.9231
2023-03-29T04:18:09.757Z,764.9231
2023-03-29T04:19:11.349Z,764.3077
2023-03-29T04:20:13.015Z,765.2308
2023-03-29T04:21:14.648Z,766.3077
2023-03-29T04:22:16.284Z,766.8461
2023-03-29T04:23:17.975Z,767.7692
2023-03-29T04:24:19.604Z,769.3077
2023-03-29T04:25:21.294Z,769.0769
2023-03-29T04:26:22.915Z,766.6923
2023-03-29T04:27:24.565Z,763.1539
2023-03-29T04:28:26.253Z,759.9231
2023-03-29T04:29:27.853Z,760.4615
2023-03-29T04:30:29.546Z,763.5385
2023-03-29T04:31:31.272Z,766.4615
2023-03-29T04:32:32.855Z,766.3077
2023-03-29T04:33:34.472Z,763.4615
2023-03-29T04:34:36.140Z,760.3077
2023-03-29T04:35:37.851Z,760.2308
2023-03-29T04:36:39.453Z,759.8461
2023-03-29T04:37:41.078Z,759.3077
2023-03-29T04:38:46.097Z,761.3077
2023-03-29T04:39:44.380Z,761.4615
2023-03-29T04:40:46.072Z,760.9231
2023-03-29T04:41:47.687Z,762.0769
2023-03-29T04:42:49.365Z,763.2308
2023-03-29T04:43:51.000Z,761.3846
2023-03-29T04:44:52.698Z,761.0000
2023-03-29T04:45:54.379Z,678.6154
2023-03-29T04:46:55.992Z,647.6154
2023-03-29T04:47:57.663Z,627.8461
2023-03-29T04:48:59.317Z,617.3846
2023-03-29T04:50:00.912Z,610.3077
2023-03-29T04:51:02.777Z,599.2308
2023-03-29T04:52:04.226Z,600.7692
2023-03-29T04:53:05.896Z,604.0769
2023-03-29T04:54:07.530Z,602.8461
2023-03-29T04:55:09.232Z,602.8461
2023-03-29T04:56:10.858Z,601.1539
2023-03-29T04:57:12.559Z,601.4615
2023-03-29T04:58:14.121Z,620.9231
2023-03-29T04:59:15.795Z,636.2308
2023-03-29T05:00:17.463Z,654.7692
2023-03-29T05:01:19.171Z,656.2308
2023-03-29T05:02:20.736Z,647.8461
2023-03-29T05:03:22.418Z,646.7692
2023-03-29T05:04:24.065Z,648.1539
2023-03-29T05:05:25.732Z,650.3077
2023-03-29T05:06:27.376Z,659.1539
2023-03-29T05:07:29.085Z,677.4615
2023-03-29T05:08:30.664Z,687.4615
2023-03-29T05:09:35.037Z,694.6154
2023-03-29T05:10:33.977Z,698.0769
2023-03-29T05:11:35.678Z,691.7692
2023-03-29T05:12:37.285Z,689.4615
2023-03-29T05:13:38.937Z,688.9231
2023-03-29T05:14:40.589Z,689.6923
2023-03-29T05:15:42.267Z,691.8461
2023-03-29T05:16:43.999Z,698.5385
2023-03-29T05:17:45.576Z,705.8461
2023-03-29T05:18:47.214Z,710.0769
2023-03-29T05:19:48.883Z,713.3077
2023-03-29T05:20:50.535Z,717.0769
2023-03-29T05:21:52.219Z,720.0769
2023-03-29T05:22:53.858Z,719.0769
2023-03-29T05:23:55.503Z,719.0000
2023-03-29T05:24:57.135Z,720.0769
2023-03-29T05:25:58.808Z,726.6923
2023-03-29T05:27:00.468Z,736.3077
2023-03-29T05:28:02.112Z,743.3077
2023-03-29T05:29:03.749Z,750.0769
2023-03-29T05:30:05.422Z,751.4615
2023-03-29T05:31:07.068Z,751.6923
2023-03-29T05:32:08.857Z,750.3077
2023-03-29T05:33:10.405Z,751.0769
2023-03-29T05:34:12.032Z,753.1539
2023-03-29T05:35:13.661Z,754.3077
2023-03-29T05:36:15.408Z,756.6154
2023-03-29T05:37:17.024Z,758.5385
2023-03-29T05:38:18.648Z,760.8461
2023-03-29T05:39:20.283Z,765.0769
2023-03-29T05:40:21.966Z,769.5385
2023-03-29T05:41:23.622Z,786.4615
2023-03-29T05:42:25.283Z,823.0000
2023-03-29T05:43:26.898Z,833.5385
2023-03-29T05:44:28.581Z,833.6923
2023-03-29T05:45:30.276Z,831.3077
2023-03-29T05:46:31.896Z,832.3077
2023-03-29T05:47:33.637Z,830.3846
2023-03-29T05:48:35.303Z,829.3846
2023-03-29T05:49:36.852Z,832.0000
2023-03-29T05:50:38.476Z,832.0769
2023-03-29T05:51:40.145Z,833.2308
2023-03-29T05:52:41.810Z,832.2308
2023-03-29T05:53:43.466Z,832.6923
2023-03-29T05:54:45.135Z,834.6923
2023-03-29T05:55:46.782Z,838.0769
2023-03-29T05:56:48.456Z,840.4615
2023-03-29T05:57:50.106Z,842.6923
2023-03-29T05:58:53.657Z,842.6154
2023-03-29T05:59:53.411Z,843.3846
2023-03-29T06:00:55.010Z,848.3077
2023-03-29T06:01:56.734Z,849.4615
2023-03-29T06:03:03.780Z,848.6154
2023-03-29T06:04:00.102Z,850.1667
2023-03-29T06:05:01.657Z,853.0769
2023-03-29T06:06:03.310Z,858.4615
2023-03-29T06:07:04.934Z,862.0769
2023-03-29T06:08:06.631Z,864.3077
2023-03-29T06:09:08.250Z,865.1539
2023-03-29T06:10:09.918Z,854.9231
2023-03-29T06:11:11.543Z,707.9231
2023-03-29T06:12:13.216Z,683.0000
2023-03-29T06:13:14.878Z,642.6154
2023-03-29T06:14:16.516Z,641.2308
2023-03-29T06:15:18.156Z,633.7692
2023-03-29T06:16:19.839Z,627.3846
2023-03-29T06:17:21.457Z,611.4615
2023-03-29T06:18:23.180Z,598.3077
2023-03-29T06:19:24.764Z,609.8461
2023-03-29T06:20:26.447Z,631.7692
2023-03-29T06:21:28.063Z,634.6154
2023-03-29T06:22:29.754Z,648.0769
2023-03-29T06:23:31.411Z,656.3077
2023-03-29T06:24:33.044Z,648.0000
2023-03-29T06:25:34.699Z,647.5385
2023-03-29T06:26:36.349Z,643.3846
2023-03-29T06:27:38.008Z,642.8461
2023-03-29T06:28:39.702Z,643.0000
2023-03-29T06:29:41.298Z,642.5385
2023-03-29T06:30:42.962Z,656.3846
2023-03-29T06:31:44.668Z,680.3077
2023-03-29T06:32:46.332Z,712.8461
2023-03-29T06:33:47.931Z,732.6923
2023-03-29T06:34:49.600Z,734.9231
2023-03-29T06:35:51.305Z,744.0769
2023-03-29T06:36:52.888Z,760.8461
2023-03-29T06:37:54.562Z,773.3846
2023-03-29T06:38:56.240Z,778.8461
2023-03-29T06:39:57.841Z,785.3846
2023-03-29T06:40:59.610Z,791.4615
2023-03-29T06:42:10.057Z,802.8461
2023-03-29T06:43:02.804Z,867.0833
2023-03-29T06:44:04.450Z,871.8461
2023-03-29T06:45:06.138Z,870.0000
2023-03-29T06:46:07.790Z,859.3077
2023-03-29T06:47:09.528Z,849.0000
2023-03-29T06:48:11.171Z,841.7692
2023-03-29T06:49:12.869Z,835.2308
2023-03-29T06:50:14.445Z,830.5385
2023-03-29T06:51:16.118Z,838.3846
2023-03-29T06:52:17.744Z,864.6923
2023-03-29T06:53:19.415Z,865.8461
2023-03-29T06:54:21.142Z,858.0000
2023-03-29T06:55:22.721Z,856.1539
2023-03-29T06:56:24.370Z,857.6154
2023-03-29T06:57:26.177Z,862.6154
2023-03-29T06:58:27.662Z,864.6154
2023-03-29T06:59:29.368Z,862.3077
2023-03-29T07:00:30.988Z,867.0769
2023-03-29T07:01:32.651Z,869.2308
2023-03-29T07:02:34.285Z,865.8461
2023-03-29T07:03:35.959Z,860.8461
2023-03-29T07:04:37.670Z,856.9231
2023-03-29T07:05:39.311Z,851.0769
2023-03-29T07:06:40.889Z,845.1539
2023-03-29T07:07:42.559Z,841.4615
2023-03-29T07:08:44.202Z,840.0000
2023-03-29T07:09:45.880Z,840.8461
2023-03-29T07:10:47.602Z,840.0769
2023-03-29T07:11:49.168Z,841.3846
2023-03-29T07:12:50.796Z,844.0000
2023-03-29T07:13:52.490Z,847.7692
2023-03-29T07:14:54.147Z,850.5385
2023-03-29T07:15:55.838Z,855.3846
2023-03-29T07:16:57.445Z,857.6154
2023-03-29T07:17:59.181Z,857.0769
2023-03-29T07:19:00.738Z,858.2308
2023-03-29T07:20:02.499Z,860.5385
2023-03-29T07:21:04.154Z,860.1539
2023-03-29T07:22:05.708Z,861.6923
2023-03-29T07:23:07.370Z,865.6923
2023-03-29T07:24:09.007Z,870.0000
2023-03-29T07:25:10.693Z,872.7692
2023-03-29T07:26:12.323Z,873.1539
2023-03-29T07:27:13.977Z,878.5385
2023-03-29T07:28:15.670Z,883.7692
2023-03-29T07:29:17.288Z,888.3077
2023-03-29T07:30:18.942Z,893.1539
2023-03-29T07:31:20.558Z,896.6154
2023-03-29T07:32:22.497Z,899.6923
2023-03-29T07:33:23.998Z,899.3077
2023-03-29T07:34:25.540Z,899.9231
2023-03-29T07:35:27.189Z,900.6923
2023-03-29T07:36:28.870Z,905.0000
2023-03-29T07:37:30.493Z,908.6154
2023-03-29T07:38:32.179Z,908.6154
2023-03-29T07:39:33.797Z,909.3077
2023-03-29T07:40:35.476Z,912.1539
2023-03-29T07:41:37.099Z,914.9231
2023-03-29T07:42:38.792Z,916.7692
2023-03-29T07:43:40.422Z,919.9231
2023-03-29T07:44:42.097Z,924.1539
2023-03-29T07:45:43.743Z,927.3077
2023-03-29T07:46:45.412Z,929.7692
2023-03-29T07:47:47.032Z,931.1539
2023-03-29T07:48:48.696Z,933.6154
2023-03-29T07:49:50.330Z,936.7692
2023-03-29T07:50:52.048Z,943.1539
2023-03-29T07:51:53.635Z,941.9231
2023-03-29T07:52:55.286Z,940.3846
2023-03-29T07:53:56.958Z,938.2308
2023-03-29T07:54:58.589Z,941.5385
2023-03-29T07:56:00.270Z,946.3077
2023-03-29T07:57:01.978Z,949.2308
2023-03-29T07:58:03.548Z,953.5385
2023-03-29T07:59:05.221Z,954.8461
2023-03-29T08:00:06.856Z,958.3846
2023-03-29T08:01:08.639Z,955.9231
2023-03-29T08:02:10.161Z,953.4615
2023-03-29T08:03:11.895Z,954.3846
2023-03-29T08:04:13.534Z,955.1539
2023-03-29T08:05:17.476Z,954.0000
2023-03-29T08:06:16.838Z,950.7500
2023-03-29T08:07:18.967Z,950.5385
2023-03-29T08:08:20.078Z,950.2308
2023-03-29T08:09:21.766Z,951.4615
2023-03-29T08:10:23.384Z,951.9231
2023-03-29T08:11:25.074Z,955.3846
2023-03-29T08:12:26.700Z,957.7692
2023-03-29T08:13:28.362Z,959.0769
2023-03-29T08:14:30.009Z,959.5385
2023-03-29T08:15:31.667Z,960.6154
2023-03-29T08:16:33.406Z,965.9231
2023-03-29T08:17:35.082Z,970.5385
2023-03-29T08:18:36.737Z,972.3077
2023-03-29T08:19:38.290Z,976.0000
2023-03-29T08:20:39.919Z,980.3077
2023-03-29T08:21:41.619Z,982.3846
2023-03-29T08:22:43.228Z,981.3846
2023-03-29T08:23:44.918Z,981.3077
2023-03-29T08:24:46.547Z,984.5385
2023-03-29T08:25:48.247Z,986.1539
2023-03-29T08:26:49.883Z,991.4615
2023-03-29T08:27:51.520Z,992.4615
2023-03-29T08:28:53.157Z,993.9231
2023-03-29T08:29:54.836Z,995.3077
2023-03-29T08:30:56.485Z,996.7692
2023-03-29T08:31:58.159Z,997.3846
2023-03-29T08:32:59.787Z,995.4615
2023-03-29T08:34:01.437Z,996.6154
2023-03-29T08:35:03.078Z,1000.7692
2023-03-29T08:36:04.780Z,1005.1539
2023-03-29T08:37:06.414Z,1009.9231
2023-03-29T08:38:08.067Z,1011.6923
2023-03-29T08:39:09.686Z,1010.5385
2023-03-29T08:40:11.363Z,1008.5385
2023-03-29T08:41:13.000Z,1012.9231
2023-03-29T08:42:14.689Z,1037.5385
2023-03-29T08:43:16.287Z,1062.1538
2023-03-29T08:44:17.974Z,1037.6154
2023-03-29T08:45:19.646Z,942.0000
2023-03-29T08:46:21.346Z,1049.1538
2023-03-29T08:47:22.933Z,1067.5385
2023-03-29T08:48:24.573Z,1075.1538
2023-03-29T08:49:26.251Z,1076.6923
2023-03-29T08:50:27.888Z,1075.8462
2023-03-29T08:51:29.532Z,1075.4615
2023-03-29T08:52:31.290Z,1073.6923
2023-03-29T08:53:32.858Z,1072.7693
2023-03-29T08:54:34.517Z,1072.0769
2023-03-29T08:55:36.145Z,1069.2307
2023-03-29T08:56:37.835Z,1066.4615
2023-03-29T08:57:39.559Z,1072.4615
2023-03-29T08:58:41.134Z,1076.1538
2023-03-29T08:59:42.743Z,1076.2307
2023-03-29T09:00:44.431Z,1079.8462
2023-03-29T09:01:48.447Z,1082.0000
2023-03-29T09:02:47.829Z,1085.8462
2023-03-29T09:03:49.473Z,1087.6923
2023-03-29T09:04:51.013Z,1090.4615
2023-03-29T09:05:52.649Z,1093.0769
2023-03-29T09:06:54.339Z,1094.7693
2023-03-29T09:07:55.976Z,1109.3846
2023-03-29T09:08:57.633Z,1142.1538
2023-03-29T09:09:59.263Z,1195.7693
2023-03-29T09:11:01.091Z,1212.6923
2023-03-29T09:12:02.570Z,1219.0769
2023-03-29T09:13:04.299Z,1219.5385
2023-03-29T09:14:05.879Z,1218.9231
2023-03-29T09:15:07.549Z,1213.9231
2023-03-29T09:16:09.173Z,1214.3846
2023-03-29T09:17:10.868Z,1216.6154
2023-03-29T09:18:12.556Z,1218.2307
2023-03-29T09:19:14.172Z,1222.4615
2023-03-29T09:20:15.802Z,1226.9231
2023-03-29T09:21:17.462Z,1233.0769
2023-03-29T09:22:20.078Z,1236.6923
2023-03-29T09:23:20.793Z,1238.1538
2023-03-29T09:24:22.423Z,1236.2307
2023-03-29T09:25:24.097Z,1232.0000
2023-03-29T09:26:25.740Z,1230.3077
2023-03-29T09:27:27.393Z,1227.7693
2023-03-29T09:28:29.049Z,1226.3846
2023-03-29T09:29:30.703Z,1225.0769
2023-03-29T09:30:32.360Z,1225.1538
2023-03-29T09:31:34.042Z,1225.0000
2023-03-29T09:32:35.706Z,1223.4615
2023-03-29T09:33:37.406Z,1223.1538
2023-03-29T09:34:38.970Z,1222.7693
2023-03-29T09:35:40.640Z,1223.3077
2023-03-29T09:36:42.269Z,1223.4615
2023-03-29T09:37:43.934Z,1224.5385
2023-03-29T09:38:45.604Z,1224.1538
2023-03-29T09:39:47.267Z,1227.4615
2023-03-29T09:40:48.900Z,1230.8462
2023-03-29T09:41:50.545Z,1234.3077
2023-03-29T09:42:52.331Z,1235.5385
2023-03-29T09:43:53.896Z,1238.3077
2023-03-29T09:44:55.489Z,1243.8462
2023-03-29T09:45:57.238Z,1247.2307
2023-03-29T09:46:58.857Z,1251.4615
2023-03-29T09:48:00.572Z,1253.5385
2023-03-29T09:49:02.169Z,1254.6923
2023-03-29T09:50:03.799Z,1258.9231
2023-03-29T09:51:05.431Z,1262.4615
2023-03-29T09:52:07.075Z,1264.7693
2023-03-29T09:53:08.726Z,1265.6154
2023-03-29T09:54:10.436Z,1265.9231
2023-03-29T09:55:12.030Z,1262.0769
2023-03-29T09:56:13.699Z,1262.1538
2023-03-29T09:57:15.415Z,1265.3846
2023-03-29T09:58:17.026Z,1268.0769
2023-03-29T09:59:18.691Z,1272.7693
2023-03-29T10:00:20.313Z,1274.4615
2023-03-29T10:01:21.949Z,1277.9231
2023-03-29T10:02:23.628Z,1279.6154
2023-03-29T10:03:25.241Z,1287.0769
2023-03-29T10:04:26.992Z,1291.7693
2023-03-29T10:05:28.548Z,1300.6923
2023-03-29T10:06:30.215Z,1319.9231
2023-03-29T10:07:31.852Z,1354.0000
2023-03-29T10:08:33.578Z,1365.3846
2023-03-29T10:09:35.200Z,1379.0000
2023-03-29T10:10:36.889Z,1393.6154
2023-03-29T10:11:38.498Z,1406.8462
2023-03-29T10:12:40.138Z,1421.6154
2023-03-29T10:13:41.777Z,1408.1538
2023-03-29T10:14:43.468Z,1410.9231
2023-03-29T10:15:45.103Z,1426.0000
2023-03-29T10:16:46.874Z,1420.2307
2023-03-29T10:17:48.467Z,1408.8462
2023-03-29T10:18:50.061Z,1412.8462
2023-03-29T10:19:51.741Z,1421.4615
2023-03-29T10:20:53.384Z,1433.4615
2023-03-29T10:21:55.023Z,1448.8462
2023-03-29T10:22:56.674Z,1452.0000
2023-03-29T10:23:58.304Z,1444.0769
2023-03-29T10:25:00.031Z,1450.4615
2023-03-29T10:26:01.625Z,1453.0000
2023-03-29T10:27:03.290Z,1454.0769
2023-03-29T10:28:04.935Z,1450.2307
2023-03-29T10:29:06.594Z,1453.1538
2023-03-29T10:30:08.253Z,1457.9231
2023-03-29T10:31:09.928Z,1458.3077
2023-03-29T10:32:11.574Z,1471.1538
2023-03-29T10:33:13.219Z,1481.0000
2023-03-29T10:34:14.830Z,1496.8462
2023-03-29T10:35:16.536Z,1492.5385
2023-03-29T10:36:18.156Z,1472.8462
2023-03-29T10:37:19.818Z,1456.8462
2023-03-29T10:38:21.486Z,1447.6923
2023-03-29T10:39:23.112Z,1440.2307
2023-03-29T10:40:24.787Z,1431.3846
2023-03-29T10:41:26.414Z,1426.6154
2023-03-29T10:42:28.047Z,1426.2307
2023-03-29T10:43:29.799Z,1418.9231
2023-03-29T10:44:33.174Z,1408.7693
2023-03-29T10:45:33.073Z,1407.0000
2023-03-29T10:46:34.789Z,1435.5385
2023-03-29T10:47:36.361Z,982.0000
2023-03-29T10:48:38.023Z,799.4615
2023-03-29T10:49:39.656Z,1182.6923
2023-03-29T10:50:41.367Z,1263.5385
2023-03-29T10:51:43.018Z,1282.8462
2023-03-29T10:52:44.650Z,1281.3077
2023-03-29T10:53:46.325Z,1281.4615
2023-03-29T10:54:47.956Z,1280.3077
2023-03-29T10:55:49.657Z,1277.0769
2023-03-29T10:56:52.558Z,1274.5385
2023-03-29T10:57:52.925Z,1274.1538
2023-03-29T10:58:54.574Z,1275.4615
2023-03-29T10:59:56.218Z,1279.0000
2023-03-29T11:00:57.875Z,1278.9231
2023-03-29T11:01:59.561Z,1281.8462
2023-03-29T11:03:01.217Z,1288.6154
2023-03-29T11:04:02.909Z,1295.6154
2023-03-29T11:05:04.441Z,1303.6923
2023-03-29T11:06:06.141Z,1308.8462
2023-03-29T11:07:07.751Z,1302.6154
2023-03-29T11:08:09.439Z,1294.7693
2023-03-29T11:09:11.054Z,1296.4615
2023-03-29T11:10:12.738Z,1293.8462
2023-03-29T11:11:14.406Z,1284.8462
2023-03-29T11:12:16.659Z,1273.6923
2023-03-29T11:13:17.694Z,1271.2307
2023-03-29T11:14:19.331Z,1268.2307
2023-03-29T11:15:20.950Z,1271.9231
2023-03-29T11:16:22.906Z,1383.6154
2023-03-29T11:17:24.275Z,1451.6923
2023-03-29T11:18:25.929Z,1450.6923
2023-03-29T11:19:27.574Z,1438.8462
2023-03-29T11:20:29.241Z,1402.6154
2023-03-29T11:21:30.897Z,1356.2307
2023-03-29T11:22:32.560Z,1340.3846
2023-03-29T11:23:34.196Z,1326.5385
2023-03-29T11:24:35.875Z,1314.1538
2023-03-29T11:25:37.478Z,1300.1538
2023-03-29T11:26:39.203Z,1289.7693
2023-03-29T11:27:40.787Z,1282.5385
2023-03-29T11:28:42.468Z,1281.0769
2023-03-29T11:29:44.126Z,1278.5385
2023-03-29T11:30:45.798Z,1275.9231
2023-03-29T11:31:47.508Z,1273.0769
2023-03-29T11:32:49.086Z,1269.3077
2023-03-29T11:33:50.713Z,1267.0769
2023-03-29T11:34:52.384Z,1263.0769
2023-03-29T11:35:54.064Z,1262.4615
2023-03-29T11:36:55.727Z,1263.3846
2023-03-29T11:37:57.313Z,1263.3846
2023-03-29T11:38:58.968Z,1262.2307
2023-03-29T11:40:00.611Z,1262.3077
2023-03-29T11:41:02.596Z,1261.4615
2023-03-29T11:42:03.935Z,1264.0000
2023-03-29T11:43:05.576Z,1268.4615
2023-03-29T11:44:07.236Z,1268.9231
2023-03-29T11:45:08.874Z,1273.0000
2023-03-29T11:46:10.523Z,1278.2307
2023-03-29T11:47:12.233Z,1282.9231
2023-03-29T11:48:13.821Z,1286.5385
2023-03-29T11:49:15.489Z,1290.0000
2023-03-29T11:50:17.142Z,1293.0000
2023-03-29T11:51:18.791Z,1308.1538
2023-03-29T11:52:20.468Z,1348.4615
2023-03-29T11:53:22.080Z,1412.8462
2023-03-29T11:54:23.758Z,1512.8462
2023-03-29T11:55:25.398Z,1559.5385
2023-03-29T11:56:27.042Z,1568.4615
2023-03-29T11:57:28.861Z,1567.1538